createdAt,value
2022-07-29T00:01:30.915Z,10.45
2022-07-29T00:04:01.049Z,10.25
2022-07-29T00:06:30.224Z,9.75
2022-07-29T00:08:59.052Z,9.30
2022-07-29T00:11:27.867Z,9.98
2022-07-29T00:13:56.653Z,8.58
2022-07-29T00:16:25.539Z,9.98
2022-07-29T00:18:54.139Z,9.88
2022-07-29T00:21:23.143Z,9.80
2022-07-29T00:23:52.322Z,9.30
2022-07-29T00:26:20.936Z,9.90
2022-07-29T00:28:49.641Z,9.90
2022-07-29T00:31:18.607Z,10.10
2022-07-29T00:33:48.801Z,9.33
2022-07-29T00:36:17.531Z,9.80
2022-07-29T00:38:47.113Z,10.45
2022-07-29T00:41:19.254Z,10.50
2022-07-29T00:43:47.858Z,10.53
2022-07-29T00:46:16.662Z,10.98
2022-07-29T00:48:47.795Z,10.28
2022-07-29T00:51:16.784Z,11.70
2022-07-29T00:53:45.983Z,12.20
2022-07-29T00:56:14.755Z,12.95
2022-07-29T00:58:43.939Z,12.63
2022-07-29T01:01:12.738Z,14.70
2022-07-29T01:03:42.680Z,14.83
2022-07-29T01:06:14.848Z,15.48
2022-07-29T01:08:44.280Z,14.45
2022-07-29T01:11:13.527Z,14.80
2022-07-29T01:13:43.852Z,15.55
2022-07-29T01:16:34.285Z,16.02
2022-07-29T01:19:08.914Z,15.10
2022-07-29T01:21:52.972Z,16.10
2022-07-29T01:24:30.117Z,15.40
2022-07-29T01:27:10.474Z,15.13
2022-07-29T01:29:47.770Z,15.80
2022-07-29T01:32:28.751Z,15.72
2022-07-29T01:35:20.185Z,15.53
2022-07-29T01:38:03.037Z,15.55
2022-07-29T01:40:37.354Z,16.52
2022-07-29T01:43:17.877Z,15.18
2022-07-29T01:45:52.087Z,15.60
2022-07-29T01:48:29.553Z,15.85
2022-07-29T01:51:16.274Z,14.87
2022-07-29T01:53:48.014Z,15.98
2022-07-29T01:56:18.910Z,15.98
2022-07-29T01:58:49.228Z,15.58
2022-07-29T02:01:20.081Z,14.23
2022-07-29T02:03:49.947Z,15.38
2022-07-29T02:06:21.369Z,15.15
2022-07-29T02:08:54.355Z,15.18
2022-07-29T02:11:22.944Z,13.78
2022-07-29T02:13:54.020Z,14.65
2022-07-29T02:16:24.799Z,14.53
2022-07-29T02:18:55.968Z,14.63
2022-07-29T02:21:26.952Z,15.53
2022-07-29T02:23:56.873Z,15.43
2022-07-29T02:26:27.960Z,15.40
2022-07-29T02:28:59.965Z,15.68
2022-07-29T02:31:31.765Z,16.97
2022-07-29T02:34:02.675Z,15.08
2022-07-29T02:36:33.824Z,15.28
2022-07-29T02:39:04.396Z,14.40
2022-07-29T02:41:51.103Z,16.00
2022-07-29T02:44:24.311Z,15.00
2022-07-29T02:47:05.211Z,14.70
2022-07-29T02:49:53.682Z,15.93
2022-07-29T02:52:37.300Z,16.35
2022-07-29T02:55:20.906Z,16.15
2022-07-29T02:57:55.753Z,15.78
2022-07-29T03:00:27.749Z,16.12
2022-07-29T03:02:58.810Z,16.17
2022-07-29T03:05:28.837Z,15.43
2022-07-29T03:08:03.304Z,16.12
2022-07-29T03:10:32.516Z,16.55
2022-07-29T03:13:02.401Z,15.70
2022-07-29T03:15:31.343Z,14.65
2022-07-29T03:18:02.405Z,14.68
2022-07-29T03:20:31.165Z,13.58
2022-07-29T03:22:59.928Z,13.62
2022-07-29T03:25:28.492Z,13.65
2022-07-29T03:27:57.602Z,14.83
2022-07-29T03:30:27.964Z,14.80
2022-07-29T03:32:58.789Z,14.00
2022-07-29T03:35:32.118Z,14.28
2022-07-29T03:38:01.429Z,13.80
2022-07-29T03:40:44.740Z,13.25
2022-07-29T03:43:14.642Z,13.30
2022-07-29T03:45:46.249Z,12.82
2022-07-29T03:48:20.701Z,12.70
2022-07-29T03:50:49.935Z,13.55
2022-07-29T03:53:18.907Z,14.15
2022-07-29T03:55:53.169Z,14.65
2022-07-29T03:58:22.240Z,14.78
2022-07-29T04:00:51.845Z,13.18
2022-07-29T04:03:21.006Z,13.43
2022-07-29T04:06:01.362Z,12.18
2022-07-29T04:08:30.434Z,12.50
2022-07-29T04:10:59.586Z,12.55
2022-07-29T04:13:28.418Z,11.53
2022-07-29T04:15:57.281Z,10.58
2022-07-29T04:18:26.412Z,10.95
2022-07-29T04:20:56.232Z,10.10
2022-07-29T04:23:27.367Z,11.15
2022-07-29T04:25:59.476Z,11.20
2022-07-29T04:31:46.503Z,9.40
2022-07-29T04:34:17.495Z,9.78
2022-07-29T04:36:53.108Z,9.95
2022-07-29T04:39:23.393Z,9.08
2022-07-29T04:41:54.907Z,9.25
2022-07-29T04:44:28.386Z,8.60
2022-07-29T04:46:54.685Z,9.13
2022-07-29T04:49:23.558Z,8.55
2022-07-29T04:51:55.243Z,8.30
2022-07-29T04:54:23.971Z,8.58
2022-07-29T04:57:00.282Z,8.13
2022-07-29T04:59:28.904Z,8.03
2022-07-29T05:01:57.642Z,8.10
2022-07-29T05:04:27.989Z,8.03
2022-07-29T05:06:56.618Z,8.58
2022-07-29T05:09:27.215Z,9.15
2022-07-29T05:12:01.897Z,8.00
2022-07-29T05:14:48.977Z,7.92
2022-07-29T05:17:18.949Z,7.70
2022-07-29T05:19:48.351Z,7.12
2022-07-29T05:22:17.069Z,7.30
2022-07-29T05:24:48.257Z,7.65
2022-07-29T05:27:18.604Z,7.65
2022-07-29T05:29:47.522Z,7.35
2022-07-29T05:32:16.357Z,7.12
2022-07-29T05:34:50.190Z,7.45
2022-07-29T05:37:16.516Z,6.58
2022-07-29T05:39:48.841Z,6.92
2022-07-29T05:42:15.721Z,7.35
2022-07-29T05:44:44.488Z,6.60
2022-07-29T05:47:16.036Z,5.92
2022-07-29T05:49:47.425Z,6.03
2022-07-29T05:52:16.781Z,6.25
2022-07-29T05:54:47.367Z,5.72
2022-07-29T05:57:24.427Z,5.80
2022-07-29T05:59:53.884Z,5.67
2022-07-29T06:02:26.050Z,6.10
2022-07-29T06:05:02.826Z,6.10
2022-07-29T06:07:37.798Z,6.08
2022-07-29T06:10:23.939Z,5.53
2022-07-29T06:12:58.231Z,6.20
2022-07-29T06:15:41.563Z,7.10
2022-07-29T06:18:13.577Z,6.53
2022-07-29T06:20:42.927Z,5.97
2022-07-29T06:23:14.822Z,5.95
2022-07-29T06:25:43.895Z,5.85
2022-07-29T06:28:20.221Z,5.62
2022-07-29T06:30:53.393Z,5.92
2022-07-29T06:36:25.167Z,5.78
2022-07-29T06:39:02.804Z,5.22
2022-07-29T06:56:32.409Z,5.28
2022-07-29T06:59:13.166Z,4.90
2022-07-29T07:01:52.962Z,4.80
2022-07-29T07:04:36.747Z,4.55
2022-07-29T07:07:13.230Z,4.97
2022-07-29T07:09:46.498Z,5.22
2022-07-29T07:12:15.593Z,4.62
2022-07-29T07:20:50.437Z,4.35
2022-07-29T07:26:15.738Z,4.03
2022-07-29T07:28:59.271Z,4.42
2022-07-29T07:31:31.114Z,3.92
2022-07-29T07:34:10.886Z,3.70
2022-07-29T07:36:52.095Z,4.72
2022-07-29T07:39:33.454Z,3.67
2022-07-29T07:59:36.502Z,3.83
2022-07-29T08:02:24.812Z,3.92
2022-07-29T08:04:55.583Z,4.10
2022-07-29T08:07:24.617Z,4.08
2022-07-29T08:09:57.756Z,4.17
2022-07-29T08:12:29.474Z,3.40
2022-07-29T08:15:05.732Z,3.70
2022-07-29T08:18:08.797Z,3.33
2022-07-29T08:20:41.869Z,3.37
2022-07-29T08:24:00.655Z,3.42
2022-07-29T08:26:27.304Z,3.25
2022-07-29T08:29:25.987Z,3.60
2022-07-29T08:31:53.532Z,2.95
2022-07-29T08:40:20.055Z,2.90
2022-07-29T08:49:52.827Z,2.98
2022-07-29T09:01:42.760Z,2.75
2022-07-29T09:04:15.670Z,3.10
2022-07-29T09:06:56.490Z,3.00
2022-07-29T09:09:29.567Z,2.92
2022-07-29T09:12:01.761Z,2.98
2022-07-29T09:14:46.796Z,2.90
2022-07-29T09:17:22.943Z,2.95
2022-07-29T09:20:04.098Z,2.95
2022-07-29T09:22:42.262Z,2.92
2022-07-29T09:25:17.434Z,2.77
2022-07-29T09:30:36.109Z,13.58
2022-07-29T09:36:14.008Z,2.87
2022-07-29T09:39:02.822Z,3.17
2022-07-29T09:41:37.572Z,3.40
2022-07-29T09:44:16.051Z,2.95
2022-07-29T09:47:10.986Z,3.37
2022-07-29T09:50:01.290Z,3.60
2022-07-29T09:52:35.410Z,2.52
2022-07-29T09:55:20.288Z,2.95
2022-07-29T09:58:03.947Z,6.47
2022-07-29T10:00:56.056Z,20.88
2022-07-29T10:03:25.294Z,3.10
2022-07-29T10:06:14.661Z,2.55
2022-07-29T10:08:47.388Z,2.80
2022-07-29T10:11:22.489Z,2.85
2022-07-29T10:13:58.347Z,3.10
2022-07-29T10:16:31.869Z,3.50
2022-07-29T10:19:16.618Z,3.00
2022-07-29T10:21:57.737Z,3.40
2022-07-29T10:24:30.642Z,2.40
2022-07-29T10:27:04.270Z,3.55
2022-07-29T10:32:40.463Z,3.25
2022-07-29T10:35:38.126Z,3.10
2022-07-29T10:38:30.677Z,2.77
2022-07-29T10:41:32.024Z,3.12
2022-07-29T10:44:04.530Z,2.55
2022-07-29T10:46:39.151Z,2.60
2022-07-29T10:49:15.245Z,2.98
2022-07-29T10:52:01.133Z,2.83
2022-07-29T10:54:46.635Z,3.00
2022-07-29T10:57:16.734Z,2.80
2022-07-29T10:59:48.601Z,3.10
2022-07-29T11:02:51.027Z,3.00
2022-07-29T11:05:43.395Z,3.20
2022-07-29T11:08:29.143Z,3.08
2022-07-29T11:11:18.751Z,2.87
2022-07-29T11:14:07.601Z,3.15
2022-07-29T11:17:18.194Z,2.90
2022-07-29T11:19:55.989Z,3.10
2022-07-29T11:22:48.027Z,3.50
2022-07-29T11:25:50.221Z,3.00
2022-07-29T11:28:22.791Z,4.30
2022-07-29T11:30:58.918Z,25.77
2022-07-29T11:36:28.011Z,3.90
2022-07-29T11:39:10.097Z,3.67
2022-07-29T11:41:40.861Z,3.33
2022-07-29T11:44:26.738Z,3.35
2022-07-29T11:46:56.507Z,3.47
2022-07-29T11:49:44.522Z,3.35
2022-07-29T11:52:14.333Z,3.40
2022-07-29T11:54:58.195Z,3.15
2022-07-29T11:57:17.908Z,3.75
2022-07-29T11:59:54.366Z,3.62
2022-07-29T12:02:37.049Z,3.80
2022-07-29T12:05:22.272Z,3.50
2022-07-29T12:07:03.977Z,3.10
2022-07-29T12:07:52.424Z,3.62
2022-07-29T12:10:31.938Z,3.52
2022-07-29T12:13:09.057Z,3.35
2022-07-29T12:16:00.082Z,3.67
2022-07-29T12:18:35.364Z,3.42
2022-07-29T12:21:06.378Z,3.55
2022-07-29T12:23:38.737Z,3.30
2022-07-29T12:26:11.097Z,3.80
2022-07-29T12:28:43.930Z,3.87
2022-07-29T12:31:43.256Z,4.03
2022-07-29T12:34:01.200Z,4.10
2022-07-29T12:36:40.608Z,4.05
2022-07-29T12:39:17.915Z,3.85
2022-07-29T12:41:54.091Z,3.70
2022-07-29T12:44:31.229Z,3.70
2022-07-29T12:47:09.992Z,4.62
2022-07-29T12:52:55.522Z,4.25
2022-07-29T12:55:45.315Z,6.28
2022-07-29T12:58:14.122Z,4.60
2022-07-29T13:00:46.370Z,4.30
2022-07-29T13:03:18.920Z,4.53
2022-07-29T13:05:50.679Z,4.47
2022-07-29T13:08:40.395Z,4.00
2022-07-29T13:11:09.823Z,4.40
2022-07-29T13:20:08.482Z,4.53
2022-07-29T13:25:56.470Z,4.50
2022-07-29T13:28:28.472Z,4.30
2022-07-29T13:31:00.109Z,4.58
2022-07-29T13:33:33.247Z,5.15
2022-07-29T13:36:06.536Z,4.80
2022-07-29T13:38:38.572Z,4.47
2022-07-29T13:41:20.807Z,3.70
2022-07-29T13:43:59.444Z,4.58
2022-07-29T13:46:34.165Z,4.00
2022-07-29T13:49:12.660Z,4.45
2022-07-29T13:51:44.581Z,4.22
2022-07-29T13:54:20.860Z,4.53
2022-07-29T13:57:06.264Z,4.25
2022-07-29T13:59:39.530Z,4.67
2022-07-29T14:02:13.336Z,4.55
2022-07-29T14:05:20.730Z,4.50
2022-07-29T14:07:38.909Z,4.80
2022-07-29T14:10:09.959Z,4.50
2022-07-29T14:12:55.550Z,4.40
2022-07-29T14:15:30.763Z,4.20
2022-07-29T14:18:14.971Z,4.40
2022-07-29T14:20:52.433Z,4.40
2022-07-29T14:23:33.906Z,6.03
2022-07-29T14:26:13.195Z,4.70
2022-07-29T14:28:50.094Z,4.45
2022-07-29T14:31:27.753Z,5.97
2022-07-29T14:34:02.909Z,4.87
2022-07-29T14:36:40.222Z,4.05
2022-07-29T14:39:23.267Z,11.75
2022-07-29T14:41:59.960Z,8.05
2022-07-29T14:44:35.572Z,8.70
2022-07-29T14:47:12.964Z,4.03
2022-07-29T14:49:48.302Z,4.40
2022-07-29T14:52:26.021Z,4.17
2022-07-29T14:54:59.752Z,4.08
2022-07-29T14:57:36.114Z,4.72
2022-07-29T15:00:22.437Z,4.15
2022-07-29T15:06:03.879Z,4.62
2022-07-29T15:11:42.115Z,8.75
2022-07-29T15:14:31.474Z,4.08
2022-07-29T15:17:09.186Z,4.40
2022-07-29T15:25:45.364Z,5.47
2022-07-29T15:31:57.866Z,4.50
2022-07-29T15:34:50.542Z,4.75
2022-07-29T16:40:14.549Z,7.20
2022-07-29T16:42:47.045Z,5.08
2022-07-29T16:45:45.510Z,6.33
2022-07-29T16:48:11.917Z,5.12
2022-07-29T16:50:48.471Z,4.80
2022-07-29T16:53:19.346Z,4.70
2022-07-29T16:55:49.668Z,4.50
2022-07-29T16:58:28.663Z,4.47
2022-07-29T17:01:02.850Z,4.55
2022-07-29T17:03:45.822Z,4.78
2022-07-29T17:06:48.692Z,4.20
2022-07-29T17:09:19.689Z,4.47
2022-07-29T17:11:58.665Z,4.78
2022-07-29T17:14:36.013Z,6.12
2022-07-29T17:17:08.684Z,4.30
2022-07-29T17:19:49.102Z,4.03
2022-07-29T17:22:22.347Z,4.20
2022-07-29T17:25:20.965Z,5.05
2022-07-29T17:27:29.152Z,4.10
2022-07-29T17:36:54.103Z,4.15
2022-07-29T17:46:19.078Z,5.40
2022-07-29T17:48:52.731Z,4.55
2022-07-29T17:51:27.577Z,4.80
2022-07-29T17:54:01.702Z,5.10
2022-07-29T17:59:47.942Z,5.70
2022-07-29T18:02:34.060Z,5.60
2022-07-29T18:05:07.730Z,5.40
2022-07-29T18:07:53.903Z,5.55
2022-07-29T18:11:10.920Z,6.58
2022-07-29T18:13:21.067Z,5.00
2022-07-29T18:15:50.034Z,10.70
2022-07-29T18:18:23.243Z,7.12
2022-07-29T18:20:56.606Z,5.30
2022-07-29T18:23:26.690Z,5.30
2022-07-29T18:25:56.869Z,5.05
2022-07-29T18:28:26.553Z,5.25
2022-07-29T18:30:55.392Z,5.30
2022-07-29T18:33:24.107Z,5.37
2022-07-29T18:36:04.215Z,5.60
2022-07-29T18:38:25.602Z,5.42
2022-07-29T18:40:54.298Z,4.92
2022-07-29T18:43:25.918Z,4.35
2022-07-29T18:45:59.203Z,5.03
2022-07-29T18:48:27.907Z,4.90
2022-07-29T18:50:57.795Z,4.65
2022-07-29T18:53:26.432Z,5.33
2022-07-29T18:56:00.175Z,10.68
2022-07-29T18:58:30.172Z,4.33
2022-07-29T19:00:58.715Z,5.42
2022-07-29T19:03:32.925Z,4.67
2022-07-29T19:06:01.553Z,5.22
2022-07-29T19:08:30.191Z,4.47
2022-07-29T19:10:58.867Z,4.72
2022-07-29T19:13:27.518Z,4.85
2022-07-29T19:15:56.674Z,5.50
2022-07-29T19:18:27.277Z,4.85
2022-07-29T19:20:58.949Z,4.20
2022-07-29T19:23:27.880Z,4.62
2022-07-29T19:25:57.255Z,4.10
2022-07-29T19:28:26.909Z,4.35
2022-07-29T19:30:57.140Z,4.35
2022-07-29T19:33:25.875Z,4.70
2022-07-29T19:35:55.182Z,4.35
2022-07-29T19:38:27.252Z,5.25
2022-07-29T19:40:56.628Z,4.87
2022-07-29T19:43:51.084Z,5.28
2022-07-29T19:45:58.720Z,5.03
2022-07-29T19:48:30.738Z,5.42
2022-07-29T19:50:59.307Z,4.85
2022-07-29T19:53:29.634Z,5.22
2022-07-29T19:55:58.459Z,5.45
2022-07-29T19:58:27.463Z,5.95
2022-07-29T20:00:57.177Z,5.80
2022-07-29T20:03:25.922Z,5.90
2022-07-29T20:05:54.976Z,6.05
2022-07-29T20:08:23.811Z,5.80
2022-07-29T20:10:52.618Z,5.80
2022-07-29T20:13:24.314Z,6.55
2022-07-29T20:15:54.101Z,6.15
2022-07-29T20:18:22.954Z,6.10
2022-07-29T20:20:53.989Z,5.70
2022-07-29T20:23:25.792Z,5.90
2022-07-29T20:25:55.248Z,5.85
2022-07-29T20:28:27.476Z,5.80
2022-07-29T20:30:56.242Z,6.03
2022-07-29T20:33:24.919Z,5.67
2022-07-29T20:35:56.824Z,6.08
2022-07-29T20:38:25.511Z,5.67
2022-07-29T20:40:55.794Z,5.58
2022-07-29T20:43:29.760Z,5.55
2022-07-29T20:46:00.172Z,5.30
2022-07-29T20:48:28.801Z,5.97
2022-07-29T20:50:59.818Z,5.53
2022-07-29T20:53:28.400Z,5.72
2022-07-29T20:55:57.052Z,5.40
2022-07-29T20:58:26.988Z,4.85
2022-07-29T21:00:56.459Z,5.67
2022-07-29T21:03:25.148Z,5.12
2022-07-29T21:05:53.833Z,5.50
2022-07-29T21:08:22.682Z,5.10
2022-07-29T21:10:52.639Z,5.05
2022-07-29T21:13:24.128Z,5.10
2022-07-29T21:15:54.861Z,5.10
2022-07-29T21:18:34.213Z,5.08
2022-07-29T21:21:03.723Z,4.83
2022-07-29T21:23:32.530Z,4.75
2022-07-29T21:26:01.269Z,4.53
2022-07-29T21:28:33.313Z,4.15
2022-07-29T21:31:03.649Z,4.70
2022-07-29T21:33:33.600Z,4.40
2022-07-29T21:38:34.827Z,4.85
2022-07-29T21:41:04.022Z,4.53
2022-07-29T21:43:33.410Z,4.15
2022-07-29T21:46:02.404Z,4.20
2022-07-29T21:48:31.080Z,4.28
2022-07-29T21:51:01.173Z,4.20
2022-07-29T21:53:30.684Z,4.12
2022-07-29T21:56:00.303Z,4.17
2022-07-29T21:58:29.079Z,3.98
2022-07-29T22:00:57.881Z,4.20
2022-07-29T22:03:26.671Z,4.35
2022-07-29T22:05:56.183Z,4.72
2022-07-29T22:08:27.145Z,4.50
2022-07-29T22:10:55.882Z,3.90
2022-07-29T22:13:24.492Z,4.03
2022-07-29T22:15:53.112Z,4.22
2022-07-29T22:18:21.749Z,4.28
2022-07-29T22:20:55.957Z,4.35
2022-07-29T22:23:24.322Z,3.87
2022-07-29T22:25:56.175Z,4.25
2022-07-29T22:28:28.888Z,4.28
2022-07-29T22:30:57.771Z,4.17
2022-07-29T22:33:29.304Z,4.30
2022-07-29T22:35:57.999Z,4.28
2022-07-29T22:38:27.256Z,3.83
2022-07-29T22:41:00.695Z,4.00
2022-07-29T22:43:26.323Z,3.77
2022-07-29T22:45:55.044Z,3.58
2022-07-29T22:48:23.714Z,3.27
2022-07-29T22:50:52.441Z,3.20
2022-07-29T22:53:21.136Z,3.22
2022-07-29T22:55:49.762Z,3.50
2022-07-29T22:58:18.454Z,3.37
2022-07-29T23:00:47.158Z,3.52
2022-07-29T23:03:21.521Z,3.65
2022-07-29T23:05:57.839Z,3.33
2022-07-29T23:08:32.105Z,3.45
2022-07-29T23:11:04.380Z,3.30
2022-07-29T23:13:33.100Z,3.12
2022-07-29T23:16:02.953Z,3.30
2022-07-29T23:18:31.659Z,3.20
2022-07-29T23:21:00.345Z,3.65
2022-07-29T23:23:32.452Z,3.27
2022-07-29T23:25:59.476Z,3.15
2022-07-29T23:28:30.776Z,3.47
2022-07-29T23:30:59.506Z,2.95
2022-07-29T23:33:28.081Z,3.40
2022-07-29T23:35:56.711Z,3.00
2022-07-29T23:38:25.306Z,3.12
2022-07-29T23:40:53.994Z,3.50
2022-07-29T23:43:22.661Z,3.17
2022-07-29T23:45:53.655Z,3.98
2022-07-29T23:48:22.669Z,3.80
2022-07-29T23:51:00.491Z,3.40
2022-07-29T23:53:29.801Z,4.20
2022-07-29T23:55:58.613Z,4.30
2022-07-29T23:58:27.643Z,3.98
